Time;durP1;ratioP1;P1;durP2;ratioP2;P2;SDS_P1;SDS_P2;PMS_P1;PMS_P2;Temp;Humidity;BMP_temperature;BMP_pressure;BME280_temperature;BME280_humidity;BME280_pressure;Samples;Min_cycle;Max_cycle;Signal;HPM_P1;HPM_P2
2023/06/02 00:00:20;;;;;;;8.00;3.70;;;;;;;15.12;55.69;98953.84;107472;1254;73378;-39
2023/06/02 00:02:51;;;;;;;11.00;4.50;;;;;;;15.08;55.35;98948.65;107476;1259;67541;-40
2023/06/02 00:05:19;;;;;;;7.70;3.90;;;;;;;15.06;55.14;98949.20;107508;1259;70635;-40
2023/06/02 00:07:48;;;;;;;9.70;4.40;;;;;;;15.03;55.07;98952.42;107463;1257;59735;-39
2023/06/02 00:10:16;;;;;;;7.30;4.10;;;;;;;14.99;55.05;98952.30;107487;1254;59360;-39
2023/06/02 00:12:43;;;;;;;8.20;4.10;;;;;;;14.97;55.37;98953.23;107482;1255;72382;-38
2023/06/02 00:15:11;;;;;;;7.80;4.30;;;;;;;14.96;55.93;98952.15;107396;1253;66805;-39
2023/06/02 00:17:39;;;;;;;6.50;4.20;;;;;;;14.96;57.07;98949.49;107390;1255;73008;-39
2023/06/02 00:20:07;;;;;;;9.70;4.30;;;;;;;14.96;58.19;98950.35;107397;1259;59113;-39
2023/06/02 00:22:41;;;;;;;7.00;4.20;;;;;;;14.95;58.63;98951.77;107342;1254;60057;-39
2023/06/02 00:25:09;;;;;;;14.70;4.60;;;;;;;14.93;58.63;98950.60;107516;1259;71573;-39
2023/06/02 00:27:36;;;;;;;5.80;4.00;;;;;;;14.91;57.64;98946.64;107499;1260;66496;-39
2023/06/02 00:30:05;;;;;;;9.90;4.10;;;;;;;14.87;57.56;98951.48;107527;1255;72782;-39
2023/06/02 00:32:33;;;;;;;8.80;4.30;;;;;;;14.83;57.37;98949.88;107539;1254;60071;-40
2023/06/02 00:35:01;;;;;;;5.60;3.60;;;;;;;14.80;57.23;98944.98;107537;1257;60062;-40
2023/06/02 00:37:29;;;;;;;5.20;3.60;;;;;;;14.79;57.18;98941.32;107471;1254;73057;-40
2023/06/02 00:39:56;;;;;;;6.70;3.60;;;;;;;14.76;56.87;98940.00;107649;1257;67550;-40
2023/06/02 00:42:24;;;;;;;7.50;3.90;;;;;;;14.75;56.89;98937.29;107486;1258;71023;-40
2023/06/02 00:44:52;;;;;;;7.70;4.20;;;;;;;14.74;57.16;98937.84;107525;1259;60091;-40
2023/06/02 00:47:19;;;;;;;9.00;4.30;;;;;;;14.73;57.40;98938.30;107544;1253;59512;-40
2023/06/02 00:49:47;;;;;;;10.90;4.10;;;;;;;14.71;57.56;98939.34;107504;1253;73090;-40
2023/06/02 00:52:15;;;;;;;5.00;3.60;;;;;;;14.70;57.65;98936.67;107508;1253;66320;-40
2023/06/02 00:54:42;;;;;;;6.80;3.70;;;;;;;14.70;57.76;98937.93;107497;1257;72703;-40
2023/06/02 00:57:10;;;;;;;7.00;3.60;;;;;;;14.69;57.75;98938.95;107544;1254;59397;-40
2023/06/02 00:59:37;;;;;;;9.60;4.10;;;;;;;14.68;57.92;98935.92;107504;1254;59555;-40
2023/06/02 01:02:07;;;;;;;9.00;4.00;;;;;;;14.67;58.10;98934.98;107509;1255;71263;-40
2023/06/02 01:04:35;;;;;;;9.30;4.10;;;;;;;14.66;58.60;98933.75;107514;1259;66747;-40
2023/06/02 01:07:04;;;;;;;6.50;3.50;;;;;;;14.65;59.59;98931.48;107641;1254;71397;-40
2023/06/02 01:09:31;;;;;;;7.20;4.10;;;;;;;14.66;59.65;98931.33;107393;1254;61703;-40
2023/06/02 01:11:59;;;;;;;6.00;3.50;;;;;;;14.70;59.22;98931.53;107352;1254;60001;-40
2023/06/02 01:14:28;;;;;;;8.70;3.70;;;;;;;14.74;58.80;98930.73;107620;1254;71816;-40
2023/06/02 01:16:55;;;;;;;7.70;3.70;;;;;;;14.75;58.31;98930.18;107518;1258;67908;-40
2023/06/02 01:19:25;;;;;;;9.90;3.80;;;;;;;14.76;56.98;98926.91;107480;1259;72668;-40
2023/06/02 01:21:59;;;;;;;5.50;3.60;;;;;;;14.76;57.07;98925.44;107543;1254;59647;-40
2023/06/02 01:24:29;;;;;;;8.80;3.90;;;;;;;14.77;56.95;98926.50;107568;1254;59151;-40
2023/06/02 01:26:58;;;;;;;7.40;3.50;;;;;;;14.76;56.70;98929.49;107539;1259;73096;-40
2023/06/02 01:29:32;;;;;;;6.40;3.50;;;;;;;14.72;56.69;98926.52;107644;1254;66303;-40
2023/06/02 01:32:00;;;;;;;10.20;3.60;;;;;;;14.69;56.33;98926.55;107515;1255;72707;-40
2023/06/02 01:34:32;;;;;;;7.50;4.00;;;;;;;14.65;56.12;98926.34;107505;1260;59673;-39
2023/06/02 01:37:00;;;;;;;11.30;3.90;;;;;;;14.62;56.19;98922.92;107504;1254;59810;-39
2023/06/02 01:39:27;;;;;;;6.80;3.50;;;;;;;14.57;56.48;98924.81;107349;1260;71477;-39
2023/06/02 01:41:55;;;;;;;10.40;4.40;;;;;;;14.53;56.98;98922.17;107563;1254;66823;-39
2023/06/02 01:44:23;;;;;;;8.30;3.70;;;;;;;14.50;56.89;98921.25;107492;1260;72783;-39
2023/06/02 01:46:51;;;;;;;6.10;3.80;;;;;;;14.46;57.13;98923.23;107542;1254;59579;-39
2023/06/02 01:49:18;;;;;;;8.20;3.80;;;;;;;14.41;57.38;98924.10;107513;1254;60021;-39
2023/06/02 01:51:46;;;;;;;7.80;3.80;;;;;;;14.38;57.39;98923.40;107545;1254;71859;-39
2023/06/02 01:54:15;;;;;;;5.00;3.10;;;;;;;14.34;57.43;98921.73;107516;1259;67879;-39
2023/06/02 01:56:42;;;;;;;8.00;3.70;;;;;;;14.31;57.53;98921.69;107487;1255;72730;-39
2023/06/02 01:59:10;;;;;;;7.40;4.10;;;;;;;14.28;57.68;98922.46;107478;1260;59643;-39
2023/06/02 02:01:40;;;;;;;8.00;3.60;;;;;;;14.26;57.52;98922.17;107610;1253;59521;-40
2023/06/02 02:04:08;;;;;;;7.60;3.90;;;;;;;14.23;57.36;98915.55;107517;1254;71823;-39
2023/06/02 02:06:36;;;;;;;10.90;3.80;;;;;;;14.20;57.21;98920.71;107515;1260;66361;-39
2023/06/02 02:09:07;;;;;;;9.50;3.70;;;;;;;14.15;57.01;98914.71;107460;1254;72725;-39
2023/06/02 02:11:34;;;;;;;9.80;3.80;;;;;;;14.13;56.94;98916.68;107445;1253;60089;-39
2023/06/02 02:14:05;;;;;;;6.50;4.10;;;;;;;14.08;57.02;98918.09;107472;1253;58785;-39
2023/06/02 02:16:33;;;;;;;6.90;3.90;;;;;;;14.05;57.28;98916.07;107505;1260;73092;-39
2023/06/02 02:19:01;;;;;;;10.20;3.60;;;;;;;14.05;57.26;98915.52;107390;1259;67744;-39
2023/06/02 02:21:28;;;;;;;8.60;4.60;;;;;;;14.05;57.08;98913.89;107473;1257;72627;-39
2023/06/02 02:23:56;;;;;;;6.20;3.80;;;;;;;14.05;57.18;98916.38;107494;1254;60130;-39
2023/06/02 02:26:25;;;;;;;11.00;4.40;;;;;;;14.04;57.18;98916.77;107519;1258;59538;-39
2023/06/02 02:28:53;;;;;;;6.60;4.10;;;;;;;14.04;56.87;98918.56;107363;1254;73032;-39
2023/06/02 02:31:22;;;;;;;9.20;4.00;;;;;;;14.02;57.16;98915.77;107504;1254;67585;-39
2023/06/02 02:33:50;;;;;;;;;;;;;;;14.03;57.23;98915.54;107652;1253;73792;-39
2023/06/02 02:36:18;;;;;;;7.50;3.90;;;;;;;13.97;57.28;98915.55;107472;1254;59624;-39
2023/06/02 02:38:47;;;;;;;7.80;3.70;;;;;;;13.93;57.40;98913.68;107527;1254;60046;-39
2023/06/02 02:41:15;;;;;;;7.50;4.10;;;;;;;13.95;57.33;98912.05;107417;1259;73038;-39
2023/06/02 02:43:43;;;;;;;13.90;4.20;;;;;;;13.95;57.33;98917.02;107500;1255;66260;-39
2023/06/02 02:46:11;;;;;;;8.30;4.30;;;;;;;13.96;57.15;98913.29;107505;1253;71418;-39
2023/06/02 02:48:39;;;;;;;10.70;4.20;;;;;;;13.97;57.14;98913.05;107523;1259;60169;-39
2023/06/02 02:51:07;;;;;;;13.40;4.40;;;;;;;13.99;57.12;98912.58;107487;1254;60036;-39
2023/06/02 02:53:34;;;;;;;7.30;3.90;;;;;;;14.04;57.27;98911.41;107478;1254;71790;-39
2023/06/02 02:56:03;;;;;;;6.30;3.60;;;;;;;14.09;56.89;98908.90;107515;1254;66342;-39
2023/06/02 02:58:31;;;;;;;8.90;4.30;;;;;;;14.13;56.57;98913.48;107668;1257;71443;-39
2023/06/02 03:00:59;;;;;;;8.00;4.30;;;;;;;14.15;56.72;98908.73;107514;1255;59678;-41
2023/06/02 03:03:28;;;;;;;22.70;7.60;;;;;;;14.19;56.59;98908.63;107557;1255;59698;-39
2023/06/02 03:05:56;;;;;;;12.60;5.20;;;;;;;14.22;57.09;98908.92;107498;1255;73022;-39
2023/06/02 03:08:24;;;;;;;10.30;3.90;;;;;;;14.28;57.12;98911.41;107486;1254;66293;-39
2023/06/02 03:10:52;;;;;;;10.90;4.10;;;;;;;14.34;56.75;98913.20;107517;1254;72737;-39
2023/06/02 03:13:20;;;;;;;6.90;3.60;;;;;;;14.39;56.86;98914.52;107529;1254;60280;-39
2023/06/02 03:15:48;;;;;;;9.60;4.30;;;;;;;14.43;56.85;98914.89;107483;1254;59104;-39
2023/06/02 03:18:17;;;;;;;10.00;3.80;;;;;;;14.47;56.77;98915.73;107634;1254;74069;-39
2023/06/02 03:20:48;;;;;;;8.20;3.40;;;;;;;14.51;56.87;98913.84;107507;1254;66606;-39
2023/06/02 03:23:17;;;;;;;6.60;3.70;;;;;;;14.58;56.74;98913.91;107487;1254;71432;-39
2023/06/02 03:25:46;;;;;;;6.20;3.70;;;;;;;14.65;56.78;98909.19;107620;1254;60492;-40
2023/06/02 03:28:14;;;;;;;9.40;3.80;;;;;;;14.71;56.63;98908.84;107503;1253;60056;-39
2023/06/02 03:30:41;;;;;;;6.90;3.80;;;;;;;14.76;56.36;98904.53;107621;1254;74317;-39
2023/06/02 03:33:10;;;;;;;9.10;3.70;;;;;;;14.81;56.00;98897.48;107650;1254;66305;-39
2023/06/02 03:35:38;;;;;;;7.50;4.00;;;;;;;14.88;55.96;98901.27;107665;1254;71350;-39
2023/06/02 03:38:06;;;;;;;7.50;4.00;;;;;;;14.95;55.93;98901.30;107580;1254;60306;-39
2023/06/02 03:40:34;;;;;;;9.00;4.00;;;;;;;15.01;55.65;98897.21;107374;1254;60228;-39
2023/06/02 03:43:02;;;;;;;9.60;4.00;;;;;;;15.08;55.26;98893.50;107479;1254;72584;-39
2023/06/02 03:45:30;;;;;;;9.90;3.60;;;;;;;15.14;55.18;98898.67;107622;1257;67585;-39
2023/06/02 03:47:58;;;;;;;7.60;3.40;;;;;;;15.20;54.90;98894.90;107371;1259;71304;-39
2023/06/02 03:50:26;;;;;;;10.80;4.10;;;;;;;15.27;54.82;98891.41;107708;1254;60740;-39
2023/06/02 03:52:54;;;;;;;13.50;4.40;;;;;;;15.35;54.67;98893.92;107468;1254;60290;-39
2023/06/02 03:55:24;;;;;;;11.60;4.10;;;;;;;15.42;54.55;98894.02;107607;1257;74420;-39
2023/06/02 03:57:52;;;;;;;;;;;;;;;15.50;54.63;98896.70;107614;1254;68802;-39
2023/06/02 04:00:20;;;;;;;9.60;3.70;;;;;;;15.54;54.92;98893.87;107531;1254;71383;-39
2023/06/02 04:02:50;;;;;;;8.80;4.20;;;;;;;15.59;54.96;98895.23;107506;1254;60421;-39
2023/06/02 04:05:19;;;;;;;7.60;4.20;;;;;;;15.72;54.77;98893.64;107646;1254;59601;-39
2023/06/02 04:07:48;;;;;;;6.90;3.90;;;;;;;15.83;54.72;98894.01;107616;1254;72563;-39
2023/06/02 04:10:16;;;;;;;7.40;3.50;;;;;;;15.93;54.53;98893.20;107557;1254;66609;-39
2023/06/02 04:12:44;;;;;;;8.70;4.00;;;;;;;16.04;54.54;98892.37;107496;1254;72688;-39
2023/06/02 04:15:13;;;;;;;6.50;3.40;;;;;;;16.16;54.66;98885.38;107619;1254;60233;-39
2023/06/02 04:17:42;;;;;;;9.20;4.10;;;;;;;16.28;54.10;98882.27;107399;1253;60332;-39
2023/06/02 04:20:12;;;;;;;6.80;3.90;;;;;;;16.41;53.80;98883.13;107548;1259;73861;-39
2023/06/02 04:22:41;;;;;;;7.00;3.70;;;;;;;16.55;53.51;98879.52;107428;1259;67628;-39
2023/06/02 04:25:09;;;;;;;8.10;3.70;;;;;;;16.69;52.73;98874.59;107635;1254;71391;-39
2023/06/02 04:27:37;;;;;;;15.20;3.30;;;;;;;16.83;53.06;98875.32;107487;1254;60482;-39
2023/06/02 04:30:07;;;;;;;6.80;3.90;;;;;;;16.98;52.77;98871.52;107503;1254;60386;-39
2023/06/02 04:32:35;;;;;;;7.40;4.10;;;;;;;17.11;52.24;98874.45;107684;1254;74426;-39
2023/06/02 04:35:03;;;;;;;12.40;4.00;;;;;;;17.22;50.95;98872.16;107503;1254;66283;-39
2023/06/02 04:37:32;;;;;;;9.80;3.50;;;;;;;17.32;51.11;98868.09;107501;1254;71418;-39
2023/06/02 04:40:05;;;;;;;;;;;;;;;17.44;50.38;98869.85;107537;1254;60469;-39
2023/06/02 04:42:36;;;;;;;9.50;3.70;;;;;;;17.50;50.20;98867.02;107524;1253;61144;-39
2023/06/02 04:45:12;;;;;;;7.10;3.60;;;;;;;17.58;50.10;98870.02;107545;1254;73850;-39
2023/06/02 04:47:43;;;;;;;9.00;4.00;;;;;;;17.71;49.94;98867.39;107666;1254;66270;-39
2023/06/02 04:50:12;;;;;;;5.40;3.50;;;;;;;17.82;49.92;98865.77;107530;1254;72666;-39
2023/06/02 04:52:41;;;;;;;6.00;3.80;;;;;;;17.94;50.02;98862.19;107343;1254;60392;-39
2023/06/02 04:55:10;;;;;;;11.70;4.10;;;;;;;18.06;49.37;98862.42;107556;1253;60795;-39
2023/06/02 04:57:39;;;;;;;;;;;;;;;18.18;49.54;98861.86;107490;1254;72601;-39
2023/06/02 05:00:08;;;;;;;7.60;3.80;;;;;;;18.23;49.28;98855.88;107485;1254;66335;-38
2023/06/02 05:02:37;;;;;;;9.40;3.70;;;;;;;18.34;48.94;98858.10;107376;1257;71423;-39
2023/06/02 05:05:05;;;;;;;7.60;3.40;;;;;;;18.48;48.76;98855.54;107485;1253;60347;-39
2023/06/02 05:07:33;;;;;;;10.20;3.70;;;;;;;18.60;48.45;98858.20;107521;1260;60463;-39
2023/06/02 05:10:01;;;;;;;10.90;3.70;;;;;;;18.74;48.67;98857.05;107525;1254;72541;-39
2023/06/02 05:12:29;;;;;;;6.90;3.40;;;;;;;18.88;48.30;98853.58;107583;1256;66310;-39
2023/06/02 05:14:59;;;;;;;8.10;3.40;;;;;;;19.02;48.28;98855.05;107518;1254;71401;-39
2023/06/02 05:17:27;;;;;;;6.00;3.50;;;;;;;19.16;47.37;98846.17;107457;1254;60396;-40
2023/06/02 05:19:58;;;;;;;7.90;3.60;;;;;;;19.30;46.92;98846.38;107551;1254;60261;-40
2023/06/02 05:22:27;;;;;;;10.00;3.40;;;;;;;19.45;46.74;98849.42;107489;1254;72584;-39
2023/06/02 05:24:55;;;;;;;10.00;3.40;;;;;;;19.60;46.64;98852.83;107512;1258;66652;-39
2023/06/02 05:27:23;;;;;;;10.60;3.90;;;;;;;19.72;45.90;98850.08;107603;1254;71406;-39
2023/06/02 05:29:51;;;;;;;6.70;3.30;;;;;;;19.83;45.79;98852.98;107389;1257;60479;-40
2023/06/02 05:32:22;;;;;;;7.40;3.60;;;;;;;19.95;46.19;98852.05;107511;1259;59627;-39
2023/06/02 05:34:51;;;;;;;7.20;3.60;;;;;;;20.08;45.79;98852.48;107378;1254;73158;-39
2023/06/02 05:37:19;;;;;;;10.60;4.10;;;;;;;20.19;45.64;98851.30;107583;1259;66625;-39
2023/06/02 05:39:47;;;;;;;7.60;3.40;;;;;;;20.30;46.34;98853.58;107570;1257;72671;-40
2023/06/02 05:42:15;;;;;;;8.20;3.50;;;;;;;20.47;45.61;98859.27;107490;1259;60571;-39
2023/06/02 05:44:43;;;;;;;6.30;3.40;;;;;;;20.58;44.94;98856.58;107565;1253;60405;-39
2023/06/02 05:47:12;;;;;;;12.60;3.90;;;;;;;20.68;44.58;98855.73;107403;1252;73834;-39
2023/06/02 05:49:40;;;;;;;7.50;3.50;;;;;;;20.78;44.51;98850.37;107498;1254;67299;-40
2023/06/02 05:52:08;;;;;;;8.10;3.70;;;;;;;20.90;44.16;98855.20;107526;1254;71447;-39
2023/06/02 05:54:36;;;;;;;9.30;3.30;;;;;;;21.01;43.87;98851.48;107607;1253;60261;-40
2023/06/02 05:57:05;;;;;;;6.40;3.70;;;;;;;21.11;43.86;98852.81;107543;1254;60428;-39
2023/06/02 05:59:32;;;;;;;10.10;3.80;;;;;;;21.20;43.19;98851.69;107576;1254;73924;-39
2023/06/02 06:02:01;;;;;;;10.30;4.10;;;;;;;21.29;43.13;98848.34;107474;1254;66508;-39
2023/06/02 06:04:28;;;;;;;10.90;3.60;;;;;;;21.39;43.08;98849.98;107349;1259;71499;-40
2023/06/02 06:06:58;;;;;;;10.10;3.90;;;;;;;21.47;43.25;98848.03;107523;1255;60299;-40
2023/06/02 06:09:26;;;;;;;10.80;3.60;;;;;;;21.56;42.80;98848.77;107548;1254;60291;-40
2023/06/02 06:11:53;;;;;;;6.10;3.60;;;;;;;21.63;42.57;98845.05;107473;1254;72561;-40
2023/06/02 06:14:22;;;;;;;6.30;3.40;;;;;;;21.71;42.62;98843.20;107461;1254;66437;-39
2023/06/02 06:16:50;;;;;;;8.70;3.40;;;;;;;21.79;42.53;98842.62;107463;1253;71388;-40
2023/06/02 06:19:18;;;;;;;12.40;3.60;;;;;;;21.89;42.10;98840.92;107436;1256;60635;-40
2023/06/02 06:21:46;;;;;;;8.80;3.50;;;;;;;22.00;41.87;98843.46;107394;1254;59621;-40
2023/06/02 06:24:14;;;;;;;6.50;3.00;;;;;;;22.12;41.64;98846.03;107437;1254;72541;-40
2023/06/02 06:26:42;;;;;;;12.30;3.70;;;;;;;22.25;41.20;98848.24;107352;1253;66791;-40
2023/06/02 06:29:10;;;;;;;5.60;3.60;;;;;;;22.38;40.73;98843.75;107352;1259;72727;-40
2023/06/02 06:31:38;;;;;;;8.90;3.30;;;;;;;22.48;39.41;98842.98;107499;1256;60501;-40
2023/06/02 06:34:09;;;;;;;4.80;3.70;;;;;;;22.55;39.51;98846.23;107349;1254;60508;-39
2023/06/02 06:36:37;;;;;;;9.70;3.90;;;;;;;22.63;39.25;98845.70;107478;1253;72610;-40
2023/06/02 06:39:06;;;;;;;6.50;3.60;;;;;;;22.72;39.54;98842.08;107382;1253;66255;-40
2023/06/02 06:41:40;;;;;;;7.40;3.30;;;;;;;22.82;39.11;98844.74;107464;1259;72437;-39
2023/06/02 06:44:12;;;;;;;5.90;3.50;;;;;;;22.94;38.62;98838.71;107452;1256;60440;-40
2023/06/02 06:46:40;;;;;;;6.40;3.40;;;;;;;23.00;38.09;98837.50;107478;1254;60408;-40
2023/06/02 06:49:08;;;;;;;8.40;3.90;;;;;;;23.08;37.54;98840.02;107516;1254;72532;-40
2023/06/02 06:51:36;;;;;;;6.40;3.90;;;;;;;23.17;37.15;98838.48;107466;1254;67556;-40
2023/06/02 06:54:05;;;;;;;6.20;3.80;;;;;;;23.27;37.03;98835.15;107476;1253;71880;-40
2023/06/02 06:56:36;;;;;;;6.60;3.60;;;;;;;23.38;36.26;98835.88;107441;1255;60444;-40
2023/06/02 06:59:03;;;;;;;8.10;3.50;;;;;;;23.48;35.22;98838.81;107493;1254;60393;-40
2023/06/02 07:01:31;;;;;;;8.00;3.50;;;;;;;23.59;35.37;98835.98;107519;1254;72664;-40
2023/06/02 07:03:59;;;;;;;9.00;3.80;;;;;;;23.70;35.05;98833.27;107527;1254;67568;-40
2023/06/02 07:06:26;;;;;;;6.40;3.70;;;;;;;23.81;34.76;98834.55;107514;1254;71453;-40
2023/06/02 07:08:54;;;;;;;12.40;3.50;;;;;;;23.93;34.92;98834.90;107490;1254;60846;-39
2023/06/02 07:11:21;;;;;;;14.10;3.60;;;;;;;24.04;34.16;98838.13;107520;1259;60297;-40
2023/06/02 07:13:50;;;;;;;9.50;3.50;;;;;;;24.12;34.08;98833.84;107629;1254;72663;-40
2023/06/02 07:16:24;;;;;;;6.30;3.00;;;;;;;24.20;33.81;98834.45;107545;1254;67924;-40
2023/06/02 07:18:52;;;;;;;10.30;3.20;;;;;;;24.31;34.29;98830.24;107489;1253;72574;-40
2023/06/02 07:21:20;;;;;;;8.80;3.00;;;;;;;24.42;33.81;98835.58;107481;1254;60506;-39
2023/06/02 07:23:48;;;;;;;4.20;2.80;;;;;;;24.51;33.98;98837.65;107505;1253;60141;-40
2023/06/02 07:26:15;;;;;;;5.00;2.80;;;;;;;24.56;33.12;98836.77;107505;1253;73895;-40
2023/06/02 07:28:43;;;;;;;5.20;3.00;;;;;;;24.61;32.87;98835.29;107499;1254;67545;-40
2023/06/02 07:31:11;;;;;;;7.80;2.80;;;;;;;24.67;32.90;98834.89;107484;1254;72016;-40
2023/06/02 07:33:39;;;;;;;8.60;3.00;;;;;;;24.79;33.23;98835.70;107491;1254;60517;-40
2023/06/02 07:36:07;;;;;;;7.70;3.30;;;;;;;24.88;32.45;98834.48;107543;1253;60326;-40
2023/06/02 07:38:34;;;;;;;6.50;3.00;;;;;;;24.92;31.77;98836.41;107473;1259;73906;-40
2023/06/02 07:41:03;;;;;;;6.00;3.20;;;;;;;24.96;32.08;98828.89;107523;1254;67866;-40
2023/06/02 07:43:31;;;;;;;7.60;3.20;;;;;;;25.03;32.49;98828.54;107483;1254;73121;-40
2023/06/02 07:45:58;;;;;;;5.80;3.00;;;;;;;25.12;32.86;98830.96;107503;1254;60457;-40
2023/06/02 07:48:26;;;;;;;6.70;2.90;;;;;;;25.22;33.03;98828.80;107524;1253;60291;-40
2023/06/02 07:50:53;;;;;;;6.40;3.00;;;;;;;25.37;31.87;98831.31;107489;1254;73929;-40
2023/06/02 07:53:21;;;;;;;6.40;2.90;;;;;;;25.46;31.01;98829.73;107502;1254;66745;-40
2023/06/02 07:55:48;;;;;;;5.70;3.10;;;;;;;25.52;30.92;98826.13;107484;1254;72658;-40
2023/06/02 07:58:16;;;;;;;10.70;3.40;;;;;;;25.57;31.27;98825.65;107486;1254;60370;-40
2023/06/02 08:00:44;;;;;;;7.40;3.00;;;;;;;25.65;31.20;98827.98;107535;1254;60401;-40
2023/06/02 08:03:11;;;;;;;5.80;3.40;;;;;;;25.74;31.47;98826.64;107496;1254;74148;-40
2023/06/02 08:05:39;;;;;;;4.60;3.10;;;;;;;25.82;29.44;98827.56;107531;1254;68178;-40
2023/06/02 08:08:08;;;;;;;5.60;2.70;;;;;;;25.87;29.03;98820.95;107569;1252;71435;-40
2023/06/02 08:10:35;;;;;;;4.20;3.10;;;;;;;25.88;29.36;98821.67;107511;1254;60421;-40
2023/06/02 08:13:03;;;;;;;7.80;2.80;;;;;;;25.90;29.56;98815.09;107509;1254;60363;-40
2023/06/02 08:15:31;;;;;;;5.30;2.90;;;;;;;25.93;29.45;98818.02;107525;1254;73059;-40
2023/06/02 08:17:59;;;;;;;6.20;2.70;;;;;;;25.96;28.94;98819.50;107526;1253;67941;-40
2023/06/02 08:20:28;;;;;;;6.10;2.80;;;;;;;26.01;29.61;98818.07;107509;1254;71189;-40
2023/06/02 08:22:56;;;;;;;6.40;3.10;;;;;;;26.07;29.45;98817.17;107490;1253;60407;-40
2023/06/02 08:25:23;;;;;;;6.90;3.00;;;;;;;26.16;29.96;98812.89;107615;1254;60300;-40
2023/06/02 08:27:51;;;;;;;4.60;2.70;;;;;;;26.27;29.24;98819.30;107485;1253;73808;-40
2023/06/02 08:30:20;;;;;;;4.80;2.60;;;;;;;26.36;29.22;98819.39;107512;1259;67993;-40
2023/06/02 08:32:48;;;;;;;6.50;2.70;;;;;;;26.42;29.02;98818.38;107516;1257;73118;-40
2023/06/02 08:35:18;;;;;;;7.10;3.40;;;;;;;26.48;29.02;98821.45;107543;1254;61145;-40
2023/06/02 08:37:46;;;;;;;6.30;2.80;;;;;;;26.54;28.72;98820.73;107502;1254;60414;-40
2023/06/02 08:40:15;;;;;;;7.30;2.50;;;;;;;26.59;28.84;98822.20;107577;1254;73842;-40
2023/06/02 08:42:43;;;;;;;7.00;2.90;;;;;;;26.65;28.55;98819.98;107318;1254;67872;-40
2023/06/02 08:45:10;;;;;;;6.50;2.70;;;;;;;26.70;27.67;98816.41;107503;1254;72700;-40
2023/06/02 08:47:38;;;;;;;6.80;2.80;;;;;;;26.71;27.44;98815.63;107488;1254;59217;-40
2023/06/02 08:50:07;;;;;;;6.80;2.90;;;;;;;26.72;27.58;98812.19;107486;1254;60543;-40
2023/06/02 08:52:35;;;;;;;7.10;3.10;;;;;;;26.79;28.78;98807.14;107534;1254;73842;-40
2023/06/02 08:55:05;;;;;;;5.20;2.80;;;;;;;26.91;28.58;98806.14;107275;1260;66588;-40
2023/06/02 08:57:33;;;;;;;6.80;2.80;;;;;;;27.01;28.39;98807.54;107616;1253;72716;-40
2023/06/02 09:00:05;;;;;;;7.90;2.90;;;;;;;27.11;28.15;98811.09;107369;1254;59638;-40
2023/06/02 09:02:33;;;;;;;6.30;3.30;;;;;;;27.17;28.31;98805.75;107509;1259;60040;-40
2023/06/02 09:05:02;;;;;;;4.10;2.90;;;;;;;27.28;28.30;98806.70;107546;1254;72605;-40
2023/06/02 09:07:30;;;;;;;6.00;2.80;;;;;;;27.35;28.22;98805.13;107553;1253;67887;-40
2023/06/02 09:09:58;;;;;;;6.80;3.00;;;;;;;27.36;27.38;98803.57;107500;1257;71096;-40
2023/06/02 09:12:26;;;;;;;7.40;3.10;;;;;;;27.34;27.97;98800.10;107531;1254;60374;-40
2023/06/02 09:15:14;;;;;;;3.70;2.60;;;;;;;27.34;27.93;98793.88;107540;1252;60334;-40
2023/06/02 09:17:42;;;;;;;7.40;3.70;;;;;;;27.37;27.91;98796.55;107548;1253;74305;-40
2023/06/02 09:20:11;;;;;;;6.60;2.90;;;;;;;27.38;27.53;98794.98;107545;1254;67945;-40
2023/06/02 09:22:56;;;;;;;7.90;3.10;;;;;;;27.39;28.02;98790.05;107543;1254;71739;-40
2023/06/02 09:25:28;;;;;;;5.50;3.20;;;;;;;27.46;28.26;98792.30;107539;1254;60323;-40
2023/06/02 09:27:57;;;;;;;9.40;2.80;;;;;;;27.50;27.55;98794.20;107577;1254;59592;-40
2023/06/02 09:30:25;;;;;;;5.10;2.60;;;;;;;27.51;27.82;98793.77;107567;1254;73841;-40
2023/06/02 09:32:57;;;;;;;4.90;2.70;;;;;;;27.52;28.09;98790.79;107518;1254;67566;-40
2023/06/02 09:35:42;;;;;;;4.90;2.60;;;;;;;27.60;27.98;98781.86;107509;1254;72815;-40
2023/06/02 09:38:12;;;;;;;7.50;3.30;;;;;;;27.71;28.12;98785.48;107516;1254;60408;-40
2023/06/02 09:40:40;;;;;;;;;;;;;;;27.76;27.12;98781.45;107560;1254;60405;-40
2023/06/02 09:43:10;;;;;;;8.70;3.10;;;;;;;27.75;28.10;98777.52;107520;1254;72799;-40
2023/06/02 09:45:47;;;;;;;4.40;2.80;;;;;;;27.79;27.67;98772.41;107556;1254;66822;-40
2023/06/02 09:48:18;;;;;;;7.40;3.10;;;;;;;27.88;27.06;98771.29;107505;1254;72677;-40
2023/06/02 09:50:46;;;;;;;7.30;2.90;;;;;;;27.92;27.08;98770.56;107542;1254;60202;-40
2023/06/02 09:53:15;;;;;;;3.90;3.00;;;;;;;27.93;26.52;98773.26;107504;1254;60406;-40
2023/06/02 09:55:44;;;;;;;5.50;2.90;;;;;;;27.96;27.24;98763.36;107532;1254;73978;-40
2023/06/02 09:58:12;;;;;;;4.70;3.00;;;;;;;28.05;27.54;98763.05;107550;1253;66755;-40
2023/06/02 10:00:39;;;;;;;7.00;2.80;;;;;;;28.20;26.83;98770.71;107559;1254;72674;-40
2023/06/02 10:03:07;;;;;;;3.90;3.00;;;;;;;28.23;26.45;98762.63;107530;1253;60579;-40
2023/06/02 10:05:35;;;;;;;5.40;2.90;;;;;;;28.24;26.50;98762.77;107442;1254;60533;-40
2023/06/02 10:08:48;;;;;;;5.90;2.90;;;;;;;28.23;26.31;98757.30;107449;1254;73841;-40
2023/06/02 10:11:21;;;;;;;8.80;2.80;;;;;;;28.26;27.16;98753.80;107417;1254;66712;-41
2023/06/02 10:14:12;;;;;;;3.50;2.60;;;;;;;28.33;26.89;98752.73;107391;1254;73916;-40
2023/06/02 10:16:46;;;;;;;6.30;3.00;;;;;;;28.48;26.80;98747.57;107260;1256;60379;-40
2023/06/02 10:19:21;;;;;;;7.80;2.90;;;;;;;28.61;26.35;98752.73;107466;1253;60502;-40
2023/06/02 10:22:26;;;;;;;8.30;3.00;;;;;;;28.73;25.88;98743.30;107457;1253;73851;-40
2023/06/02 10:25:00;;;;;;;6.20;3.00;;;;;;;28.85;25.65;98744.09;107411;1254;66409;-40
2023/06/02 10:27:38;;;;;;;5.60;2.70;;;;;;;28.86;25.30;98744.55;107451;1256;71468;-40
2023/06/02 10:30:06;;;;;;;9.80;2.60;;;;;;;28.85;25.80;98738.86;107449;1256;60419;-40
2023/06/02 10:32:46;;;;;;;2.60;2.40;;;;;;;28.90;25.71;98732.70;107515;1255;60345;-41
2023/06/02 10:35:14;;;;;;;4.50;2.70;;;;;;;29.00;25.78;98725.09;107465;1253;73834;-40
2023/06/02 10:37:43;;;;;;;4.40;2.90;;;;;;;29.15;26.14;98715.00;107447;1253;67587;-41
2023/06/02 10:40:11;;;;;;;8.50;2.90;;;;;;;29.36;25.25;98712.02;107425;1253;71447;-40
2023/06/02 10:43:07;;;;;;;5.00;2.90;;;;;;;29.40;24.53;98710.77;107436;1253;59524;-41
2023/06/02 10:45:35;;;;;;;3.20;2.50;;;;;;;29.17;23.46;98710.96;107439;1253;60506;-40
2023/06/02 10:48:41;;;;;;;6.00;2.70;;;;;;;28.92;24.87;98713.14;107546;1253;73869;-41
2023/06/02 10:51:10;;;;;;;7.10;2.90;;;;;;;28.78;25.32;98715.20;107477;1253;68033;-40
2023/06/02 10:54:06;;;;;;;6.90;3.20;;;;;;;28.74;25.65;98706.48;107478;1253;72677;-40
2023/06/02 10:56:40;;;;;;;10.30;3.00;;;;;;;28.82;25.30;98703.34;107458;1254;60438;-40
2023/06/02 10:59:08;;;;;;;4.10;2.90;;;;;;;28.93;25.35;98698.68;107484;1253;60171;-40
2023/06/02 11:02:03;;;;;;;4.20;2.90;;;;;;;29.09;25.03;98694.73;107538;1254;72998;-40
2023/06/02 11:04:35;;;;;;;6.20;2.90;;;;;;;29.25;25.06;98693.78;107512;1254;67737;-40
2023/06/02 11:07:18;;;;;;;7.60;3.00;;;;;;;29.37;24.96;98687.20;107572;1254;71978;-40
2023/06/02 11:09:48;;;;;;;6.10;3.10;;;;;;;29.39;25.20;98689.64;107510;1253;60486;-40
2023/06/02 11:12:15;;;;;;;5.50;3.10;;;;;;;29.31;24.80;98690.13;107664;1254;60449;-40
2023/06/02 11:15:02;;;;;;;3.60;3.10;;;;;;;29.27;24.84;98688.66;107506;1254;72673;-41
2023/06/02 11:17:34;;;;;;;4.90;3.50;;;;;;;29.21;24.98;98693.37;107335;1254;241343;-41
2023/06/02 11:20:40;;;;;;;6.70;3.80;;;;;;;29.21;24.93;98686.02;104393;1289;601549;-40
2023/06/02 11:23:09;;;;;;;8.30;3.80;;;;;;;29.34;25.08;98679.66;106594;1266;59534;-40
2023/06/02 11:25:37;;;;;;;5.50;3.30;;;;;;;29.58;24.54;98675.61;106681;1264;59802;-41
2023/06/02 11:28:05;;;;;;;6.30;3.80;;;;;;;29.86;24.79;98678.56;106705;1266;72217;-41
2023/06/02 11:30:32;;;;;;;8.30;3.90;;;;;;;30.15;24.59;98679.34;106688;1265;67897;-41
2023/06/02 11:33:00;;;;;;;7.70;3.60;;;;;;;30.37;23.85;98672.36;106651;1266;71243;-41
2023/06/02 11:35:28;;;;;;;8.10;4.00;;;;;;;30.48;24.05;98674.85;106639;1268;224814;-41